Time;durP1;ratioP1;P1;durP2;ratioP2;P2;SDS_P1;SDS_P2;PMS_P1;PMS_P2;Temp;Humidity;BMP_temperature;BMP_pressure;BME280_temperature;BME280_humidity;BME280_pressure;Samples;Min_cycle;Max_cycle;Signal;HPM_P1;HPM_P2
2022/03/31 00:00:36;;;;;;;3.00;0.80;;;;;;;20.22;33.99;100437.56;4993139;28;20060;-63
2022/03/31 00:03:04;;;;;;;0.93;0.80;;;;;;;20.20;34.17;100441.44;5019466;28;20041;-66
2022/03/31 00:05:29;;;;;;;0.55;0.50;;;;;;;20.14;34.08;100437.72;4997867;28;20040;-66
2022/03/31 00:07:57;;;;;;;1.08;0.80;;;;;;;20.20;34.13;100450.19;5026030;28;20137;-66
2022/03/31 00:10:29;;;;;;;1.50;0.65;;;;;;;20.19;34.02;100450.38;4989511;28;20029;-66
2022/03/31 00:12:56;;;;;;;0.98;0.60;;;;;;;20.05;33.88;100427.47;5026196;28;20065;-63
2022/03/31 00:15:24;;;;;;;2.58;0.65;;;;;;;20.12;34.15;100438.94;4998967;28;20036;-64
2022/03/31 00:17:49;;;;;;;0.82;0.50;;;;;;;20.13;34.09;100441.38;5026007;28;20560;-65
2022/03/31 00:20:15;;;;;;;0.85;0.73;;;;;;;20.09;34.15;100428.72;5001454;28;20046;-64
2022/03/31 00:22:41;;;;;;;1.48;0.80;;;;;;;20.12;34.00;100431.81;5034428;28;20416;-64
2022/03/31 00:25:10;;;;;;;1.83;0.70;;;;;;;20.13;33.98;100437.94;5005917;28;20403;-64
2022/03/31 00:27:37;;;;;;;2.30;0.93;;;;;;;20.08;34.15;100433.19;5017380;28;20102;-64
2022/03/31 00:30:05;;;;;;;1.92;0.75;;;;;;;20.11;34.09;100434.66;5029013;28;20056;-63
2022/03/31 00:32:32;;;;;;;1.42;0.45;;;;;;;20.05;34.14;100423.00;5009652;28;20545;-64
2022/03/31 00:34:58;;;;;;;1.65;0.73;;;;;;;20.05;34.22;100433.56;5035444;28;20041;-64
2022/03/31 00:37:24;;;;;;;1.55;0.60;;;;;;;19.94;34.04;100406.84;4997425;28;20043;-63
2022/03/31 00:39:49;;;;;;;2.13;0.77;;;;;;;20.00;33.96;100419.31;5026751;28;20037;-64
2022/03/31 00:42:16;;;;;;;2.17;0.90;;;;;;;20.05;34.19;100422.19;4982190;28;20053;-64
2022/03/31 00:44:43;;;;;;;0.93;0.70;;;;;;;20.04;34.12;100421.38;5030838;28;20073;-64
2022/03/31 00:47:08;;;;;;;1.17;0.70;;;;;;;20.03;34.10;100417.09;5000934;28;20029;-64
2022/03/31 00:49:34;;;;;;;0.95;0.70;;;;;;;20.03;34.07;100424.19;5032368;28;20767;-64
2022/03/31 00:52:00;;;;;;;1.67;0.88;;;;;;;19.99;34.19;100415.84;4993585;28;20238;-64
2022/03/31 00:54:27;;;;;;;1.08;0.55;;;;;;;19.98;34.16;100414.22;5028338;28;20040;-64
2022/03/31 00:56:55;;;;;;;0.90;0.60;;;;;;;19.98;34.15;100403.63;5002866;28;20032;-64
2022/03/31 00:59:20;;;;;;;1.13;0.60;;;;;;;19.98;34.21;100405.47;5014685;28;20128;-64
2022/03/31 01:01:48;;;;;;;1.75;0.65;;;;;;;19.87;34.10;100383.81;5024544;28;20387;-66
2022/03/31 01:04:14;;;;;;;1.02;0.82;;;;;;;19.98;34.11;100401.00;5003623;28;20087;-66
2022/03/31 01:06:43;;;;;;;1.08;0.70;;;;;;;19.87;34.12;100394.38;5030696;28;20099;-66
2022/03/31 01:09:10;;;;;;;2.22;0.90;;;;;;;19.95;34.11;100401.38;5001391;28;20037;-66
2022/03/31 01:11:36;;;;;;;1.65;0.70;;;;;;;19.86;34.13;100386.66;5023150;28;20158;-66
2022/03/31 01:14:02;;;;;;;1.48;0.70;;;;;;;19.92;34.17;100402.56;4985725;28;20554;-65
2022/03/31 01:16:30;;;;;;;0.90;0.57;;;;;;;19.96;34.12;100403.00;5026015;28;20483;-66
2022/03/31 01:18:56;;;;;;;1.52;0.60;;;;;;;19.91;34.13;100400.91;5014639;28;20921;-65
2022/03/31 01:21:22;;;;;;;1.38;0.85;;;;;;;19.86;34.15;100389.28;5019577;28;20550;-66
2022/03/31 01:23:48;;;;;;;0.50;0.50;;;;;;;19.93;34.12;100387.53;4993708;28;20059;-64
2022/03/31 01:26:14;;;;;;;0.98;0.88;;;;;;;19.91;34.13;100393.00;5021951;28;20064;-65
2022/03/31 01:28:42;;;;;;;0.45;0.30;;;;;;;19.92;33.97;100391.16;5005594;28;20061;-65
2022/03/31 01:31:09;;;;;;;1.60;1.10;;;;;;;19.68;34.18;100347.47;5022644;28;20037;-65
2022/03/31 01:33:37;;;;;;;1.15;0.60;;;;;;;19.92;34.06;100386.69;5025603;28;20064;-65
2022/03/31 01:36:07;;;;;;;1.25;0.50;;;;;;;19.81;34.06;100375.84;5009024;28;20064;-64
2022/03/31 01:38:32;;;;;;;;;;;;;;;19.90;34.01;100386.06;5032465;28;20040;-64
2022/03/31 01:40:58;;;;;;;1.13;0.82;;;;;;;19.91;34.18;100382.44;5001419;28;20370;-64
2022/03/31 01:43:24;;;;;;;1.02;0.50;;;;;;;19.80;34.24;100367.09;5028986;28;20667;-64
2022/03/31 01:45:49;;;;;;;1.00;0.40;;;;;;;19.87;34.01;100369.78;4989759;28;20048;-64
2022/03/31 01:48:16;;;;;;;0.95;0.80;;;;;;;19.88;34.09;100369.59;5027522;28;20040;-64
2022/03/31 01:50:42;;;;;;;0.95;0.65;;;;;;;19.52;33.95;100300.16;5007087;28;20079;-64
2022/03/31 01:53:08;;;;;;;1.27;0.70;;;;;;;19.85;34.07;100362.06;5024454;28;20081;-64
2022/03/31 01:55:34;;;;;;;3.00;0.75;;;;;;;19.87;34.16;100364.50;5016163;28;20040;-64
2022/03/31 01:57:59;;;;;;;0.98;0.73;;;;;;;19.86;34.07;100363.69;5013804;28;20329;-64
2022/03/31 02:00:25;;;;;;;0.70;0.50;;;;;;;19.75;34.17;100353.66;5029673;28;20045;-64
2022/03/31 02:02:51;;;;;;;1.27;0.75;;;;;;;19.82;34.26;100359.81;4996195;28;20056;-65
2022/03/31 02:05:16;;;;;;;0.90;0.77;;;;;;;19.83;34.24;100356.16;5031294;28;20052;-65
2022/03/31 02:07:42;;;;;;;1.35;0.63;;;;;;;19.84;34.19;100351.69;5002557;28;20250;-64
2022/03/31 02:10:10;;;;;;;0.75;0.75;;;;;;;19.83;34.10;100350.88;5030527;28;20048;-64
2022/03/31 02:12:36;;;;;;;1.65;0.93;;;;;;;19.84;34.24;100339.28;5004548;28;20386;-64
2022/03/31 02:15:03;;;;;;;1.67;0.68;;;;;;;19.80;34.29;100337.22;5022382;28;20025;-64
2022/03/31 02:17:28;;;;;;;3.25;1.02;;;;;;;19.82;34.33;100335.22;4984497;28;20048;-64
2022/03/31 02:19:54;;;;;;;1.67;0.90;;;;;;;19.81;34.21;100341.50;5024325;28;20713;-65
2022/03/31 02:22:19;;;;;;;1.08;0.60;;;;;;;19.74;34.05;100330.84;5033792;28;20078;-65
2022/03/31 02:24:45;;;;;;;1.27;0.77;;;;;;;19.80;34.18;100338.03;4998659;28;20522;-64
2022/03/31 02:27:11;;;;;;;1.23;0.50;;;;;;;19.79;34.18;100333.75;5027451;28;20052;-64
2022/03/31 02:29:38;;;;;;;1.38;0.73;;;;;;;19.79;34.33;100328.47;5004828;28;20685;-64
2022/03/31 02:32:04;;;;;;;2.47;0.90;;;;;;;19.79;34.13;100325.84;5033096;28;20049;-64
2022/03/31 02:34:30;;;;;;;1.13;0.70;;;;;;;19.73;34.26;100315.19;4990440;28;20044;-64
2022/03/31 02:36:56;;;;;;;0.70;0.70;;;;;;;19.77;34.22;100311.19;5035660;28;20481;-64
2022/03/31 02:39:21;;;;;;;0.73;0.65;;;;;;;19.66;34.31;100303.78;5025690;28;20029;-64
2022/03/31 02:41:47;;;;;;;1.38;0.98;;;;;;;19.58;34.31;100297.63;4997897;28;20127;-64
2022/03/31 02:44:12;;;;;;;1.55;0.85;;;;;;;19.75;34.28;100319.31;5026951;28;20040;-64
2022/03/31 02:46:38;;;;;;;1.80;1.02;;;;;;;19.76;34.15;100317.50;5006524;28;20053;-64
2022/03/31 02:49:04;;;;;;;1.38;1.05;;;;;;;19.79;34.07;100310.00;5025691;28;20061;-65
2022/03/31 02:51:30;;;;;;;0.60;0.60;;;;;;;19.79;34.13;100295.97;4992177;28;20041;-64
2022/03/31 02:56:40;;;;;;;1.45;1.05;;;;;;;19.83;34.13;100289.28;5000208;28;20132;-64
2022/03/31 02:59:07;;;;;;;2.08;0.90;;;;;;;19.84;33.97;100301.47;5030350;28;20045;-64
2022/03/31 03:01:33;;;;;;;0.98;0.98;;;;;;;19.80;34.05;100285.19;5004368;28;20484;-64
2022/03/31 03:03:59;;;;;;;1.08;0.90;;;;;;;19.66;33.98;100267.63;5032329;28;20052;-64
2022/03/31 03:06:25;;;;;;;1.98;1.08;;;;;;;19.78;33.94;100295.16;4984882;28;20369;-64
2022/03/31 03:08:51;;;;;;;1.23;1.13;;;;;;;19.81;34.11;100292.13;5027216;28;20048;-64
2022/03/31 03:11:17;;;;;;;1.85;1.10;;;;;;;19.83;34.05;100292.75;5032498;28;20037;-64
2022/03/31 03:13:46;;;;;;;1.05;0.93;;;;;;;19.81;33.94;100299.22;5001505;28;20110;-65
2022/03/31 03:16:12;;;;;;;1.38;1.05;;;;;;;19.82;33.96;100296.38;5026586;28;20068;-65
2022/03/31 03:18:39;;;;;;;2.28;1.00;;;;;;;19.79;33.97;100288.84;4999702;28;20518;-64
2022/03/31 03:21:07;;;;;;;1.88;1.20;;;;;;;19.76;34.20;100289.25;5027417;28;20049;-65
2022/03/31 03:23:33;;;;;;;2.35;1.40;;;;;;;19.77;34.18;100287.41;4970104;28;20740;-64
2022/03/31 03:26:00;;;;;;;1.33;0.80;;;;;;;19.74;34.00;100285.94;5025835;28;20076;-64
2022/03/31 03:28:27;;;;;;;1.20;1.10;;;;;;;19.75;34.06;100284.97;5006426;28;20068;-65
2022/03/31 03:30:52;;;;;;;0.57;0.57;;;;;;;19.73;34.15;100279.03;5028916;28;20490;-65
2022/03/31 03:33:18;;;;;;;0.95;0.85;;;;;;;19.72;34.23;100271.31;5000844;28;20120;-64
2022/03/31 03:35:44;;;;;;;1.27;1.10;;;;;;;19.70;34.17;100270.69;5026887;28;20558;-64
2022/03/31 03:38:09;;;;;;;0.70;0.60;;;;;;;19.70;34.10;100260.94;4999004;28;20049;-65
2022/03/31 03:40:35;;;;;;;0.85;0.80;;;;;;;19.70;34.37;100262.75;5020032;28;20055;-64
2022/03/31 03:43:00;;;;;;;1.92;0.90;;;;;;;19.69;34.19;100266.41;5026363;28;20045;-64
2022/03/31 03:45:26;;;;;;;0.63;0.60;;;;;;;19.69;34.31;100276.97;5004831;28;20040;-64
2022/03/31 03:47:52;;;;;;;1.13;1.02;;;;;;;19.64;34.33;100261.72;5028187;28;20555;-64
2022/03/31 03:50:18;;;;;;;1.17;0.93;;;;;;;19.64;34.37;100264.34;5000931;28;20037;-64
2022/03/31 03:52:45;;;;;;;0.73;0.73;;;;;;;19.64;34.38;100255.63;5027268;28;20037;-65
2022/03/31 03:55:11;;;;;;;1.30;0.90;;;;;;;19.62;34.44;100255.81;4998261;28;20041;-64
2022/03/31 03:57:38;;;;;;;1.48;1.20;;;;;;;19.59;34.33;100249.09;5020148;28;20089;-65
2022/03/31 04:00:04;;;;;;;1.13;1.02;;;;;;;19.61;34.26;100251.53;5030780;28;20047;-64
2022/03/31 04:02:30;;;;;;;1.27;1.17;;;;;;;19.59;34.42;100261.47;5000304;28;20588;-65
2022/03/31 04:04:56;;;;;;;1.92;1.35;;;;;;;19.57;34.34;100252.94;5029689;28;20041;-64
2022/03/31 04:07:21;;;;;;;1.35;1.25;;;;;;;19.46;34.43;100230.47;4995974;28;20056;-64
2022/03/31 04:09:47;;;;;;;1.45;1.35;;;;;;;19.56;34.42;100249.44;5023789;28;20289;-64
2022/03/31 04:12:13;;;;;;;1.30;1.20;;;;;;;19.43;34.47;100224.75;4984807;28;20119;-65
2022/03/31 04:14:39;;;;;;;1.50;1.23;;;;;;;19.53;34.41;100252.44;5028641;28;20029;-65
2022/03/31 04:17:05;;;;;;;1.38;1.23;;;;;;;19.45;34.54;100241.22;5000169;28;20055;-65
2022/03/31 04:19:30;;;;;;;1.67;1.40;;;;;;;19.48;34.59;100246.94;5028579;28;20870;-65
2022/03/31 04:21:56;;;;;;;1.50;1.30;;;;;;;19.47;34.50;100247.94;4997695;28;20688;-65
2022/03/31 04:24:22;;;;;;;2.13;1.50;;;;;;;19.47;34.50;100247.13;5030527;28;20052;-64
2022/03/31 04:26:47;;;;;;;1.55;1.45;;;;;;;19.45;34.70;100249.94;5000721;28;20233;-64
2022/03/31 04:29:13;;;;;;;1.60;1.50;;;;;;;19.43;34.62;100251.97;5019571;28;20090;-65
2022/03/31 04:31:43;;;;;;;1.73;1.42;;;;;;;19.54;34.88;100248.81;5026543;28;20045;-64
2022/03/31 04:34:10;;;;;;;1.58;1.48;;;;;;;19.74;34.63;100251.59;5000528;28;20056;-64
2022/03/31 04:36:36;;;;;;;1.92;1.40;;;;;;;19.89;34.63;100254.16;5024317;28;20049;-65
2022/03/31 04:39:03;;;;;;;1.60;1.50;;;;;;;19.97;34.43;100224.94;4999342;28;20069;-65
2022/03/31 04:41:29;;;;;;;1.45;1.35;;;;;;;20.21;34.51;100250.88;5029096;28;20040;-65
2022/03/31 04:43:54;;;;;;;1.25;1.15;;;;;;;20.34;34.42;100255.44;4985490;28;20130;-65
2022/03/31 04:46:20;;;;;;;1.60;1.48;;;;;;;20.73;33.77;100254.78;5030922;28;20493;-65
2022/03/31 04:48:46;;;;;;;1.67;1.40;;;;;;;20.49;34.36;100261.44;5003879;28;20037;-65
2022/03/31 04:51:11;;;;;;;1.50;1.40;;;;;;;20.60;34.15;100264.50;5023838;28;20017;-65
2022/03/31 04:53:37;;;;;;;1.45;1.35;;;;;;;20.65;33.99;100256.81;5009570;28;20581;-65
2022/03/31 04:56:03;;;;;;;1.50;1.30;;;;;;;20.52;34.18;100250.44;5022557;28;20044;-65
2022/03/31 04:58:30;;;;;;;1.90;1.70;;;;;;;20.71;33.94;100256.81;5022199;28;20104;-64
2022/03/31 05:00:56;;;;;;;1.50;1.40;;;;;;;20.69;33.98;100252.75;4995440;28;20065;-64
2022/03/31 05:03:22;;;;;;;1.63;1.40;;;;;;;20.76;33.95;100246.44;5037032;28;20191;-65
2022/03/31 05:05:48;;;;;;;1.83;1.60;;;;;;;20.76;33.87;100249.09;5000543;28;20716;-64
2022/03/31 05:08:13;;;;;;;2.38;1.80;;;;;;;20.89;33.89;100247.50;5025767;28;20038;-65
2022/03/31 05:10:39;;;;;;;1.85;1.75;;;;;;;20.56;34.09;100227.06;5001849;28;20037;-65
2022/03/31 05:13:05;;;;;;;2.30;1.60;;;;;;;20.71;34.03;100240.13;5028452;28;20051;-65
2022/03/31 05:15:30;;;;;;;1.73;1.60;;;;;;;20.95;33.71;100241.38;4990565;28;20048;-64
2022/03/31 05:17:56;;;;;;;2.13;1.63;;;;;;;20.98;33.78;100238.34;5028306;28;20032;-65
2022/03/31 05:20:22;;;;;;;2.10;1.80;;;;;;;21.12;33.69;100235.50;5030707;28;20491;-64
2022/03/31 05:22:47;;;;;;;1.90;1.73;;;;;;;21.05;33.61;100234.69;5001725;28;20051;-64
2022/03/31 05:25:13;;;;;;;1.70;1.60;;;;;;;21.09;33.47;100235.91;5023889;28;20037;-65
2022/03/31 05:27:47;;;;;;;2.17;1.42;;;;;;;21.18;33.08;100231.22;5001800;28;21035;-65
2022/03/31 05:30:16;;;;;;;1.48;1.38;;;;;;;21.10;33.49;100232.25;5028346;28;20152;-64
2022/03/31 05:32:42;;;;;;;3.60;2.83;;;;;;;21.02;33.44;100231.66;4990537;28;20045;-65
2022/03/31 05:35:09;;;;;;;2.20;1.75;;;;;;;20.98;33.59;100233.84;5030439;28;20625;-65
2022/03/31 05:37:35;;;;;;;2.15;1.75;;;;;;;20.90;33.63;100242.00;5002101;28;20048;-65
2022/03/31 05:40:07;;;;;;;1.70;1.60;;;;;;;20.82;33.86;100236.88;5027317;28;20037;-65
2022/03/31 05:42:33;;;;;;;2.05;1.80;;;;;;;20.79;34.01;100234.63;5001166;28;20052;-65
2022/03/31 05:45:00;;;;;;;2.03;1.80;;;;;;;20.84;33.85;100215.53;5030686;28;21474;-65
2022/03/31 05:47:26;;;;;;;1.77;1.55;;;;;;;20.92;33.86;100212.69;4980752;28;20040;-65
2022/03/31 05:49:52;;;;;;;2.33;1.65;;;;;;;21.04;33.85;100237.56;5022208;28;20052;-65
2022/03/31 05:52:18;;;;;;;2.75;2.10;;;;;;;21.07;33.90;100232.66;5028013;28;20043;-65
2022/03/31 05:54:44;;;;;;;1.98;1.55;;;;;;;20.97;33.79;100247.28;5000449;28;20049;-65
2022/03/31 05:57:09;;;;;;;2.10;1.60;;;;;;;21.07;33.61;100234.50;5026556;28;20702;-65
2022/03/31 05:59:35;;;;;;;1.92;1.73;;;;;;;21.26;33.26;100232.91;5002410;28;20060;-65
2022/03/31 06:02:01;;;;;;;1.92;1.70;;;;;;;21.27;33.44;100234.53;5029740;28;20056;-66
2022/03/31 06:04:28;;;;;;;1.60;1.50;;;;;;;21.16;33.53;100227.16;4990093;28;20044;-65
2022/03/31 06:06:53;;;;;;;1.85;1.65;;;;;;;21.13;33.54;100231.03;5024850;28;20491;-65
2022/03/31 06:09:19;;;;;;;1.75;1.65;;;;;;;21.08;33.51;100238.78;5000707;28;20040;-65
2022/03/31 06:11:45;;;;;;;2.00;1.40;;;;;;;21.02;33.56;100221.88;5026260;28;20047;-65
2022/03/31 06:14:11;;;;;;;1.05;1.02;;;;;;;21.04;33.64;100237.56;5000444;28;20045;-65
2022/03/31 06:16:38;;;;;;;1.55;1.45;;;;;;;20.97;33.73;100228.78;5027252;28;20044;-65
2022/03/31 06:19:04;;;;;;;1.40;1.30;;;;;;;20.96;33.79;100227.97;4997410;28;20738;-65
2022/03/31 06:21:30;;;;;;;1.30;1.20;;;;;;;20.97;33.77;100231.41;5017160;28;20045;-65
2022/03/31 06:23:56;;;;;;;1.63;1.52;;;;;;;20.92;33.66;100236.50;5029277;28;20041;-65
2022/03/31 06:26:22;;;;;;;1.35;1.25;;;;;;;20.89;33.88;100244.84;4997961;28;20045;-65
2022/03/31 06:28:48;;;;;;;1.65;1.40;;;;;;;20.83;33.96;100238.53;5029000;28;20054;-65
2022/03/31 06:31:13;;;;;;;1.30;1.20;;;;;;;20.89;33.64;100250.16;5002262;28;20099;-65
2022/03/31 06:33:39;;;;;;;1.50;1.40;;;;;;;20.88;33.68;100254.63;5027135;28;20119;-66
2022/03/31 06:36:04;;;;;;;1.30;1.20;;;;;;;20.89;33.94;100255.44;4985449;28;20338;-65
2022/03/31 06:38:30;;;;;;;1.60;1.48;;;;;;;20.90;33.96;100233.25;5032454;28;20648;-66
2022/03/31 06:41:10;;;;;;;1.25;1.17;;;;;;;20.94;33.65;100239.75;5003247;28;20060;-64
2022/03/31 06:43:38;;;;;;;1.38;1.20;;;;;;;20.89;33.57;100243.03;5027496;28;20052;-66
2022/03/31 06:46:05;;;;;;;1.63;1.20;;;;;;;20.87;33.63;100239.75;5004482;28;20045;-66
2022/03/31 06:48:31;;;;;;;1.30;1.20;;;;;;;20.83;33.75;100235.91;5029808;28;20812;-66
2022/03/31 06:50:58;;;;;;;1.60;1.30;;;;;;;20.86;33.46;100240.78;5000164;28;21036;-66
2022/03/31 06:53:24;;;;;;;2.80;1.20;;;;;;;21.01;33.22;100233.47;5015953;28;20071;-66
2022/03/31 06:55:50;;;;;;;2.00;1.15;;;;;;;21.25;32.78;100233.94;5017622;28;20033;-66
2022/03/31 06:58:16;;;;;;;1.70;1.20;;;;;;;21.32;32.77;100232.09;5002508;28;20091;-66
2022/03/31 07:00:42;;;;;;;1.13;1.10;;;;;;;21.26;32.68;100240.84;5028453;28;20239;-67
2022/03/31 07:03:07;;;;;;;1.17;0.93;;;;;;;21.13;33.08;100247.72;5002846;28;20056;-66
2022/03/31 07:05:39;;;;;;;1.45;1.35;;;;;;;21.05;32.85;100237.34;5036009;28;21174;-66
2022/03/31 07:08:05;;;;;;;1.23;1.13;;;;;;;21.01;33.02;100243.25;4992016;28;20041;-66
2022/03/31 07:10:30;;;;;;;1.48;1.02;;;;;;;20.99;33.02;100243.44;5019447;28;20029;-64
2022/03/31 07:12:56;;;;;;;1.10;0.82;;;;;;;20.95;33.07;100246.69;4990299;28;20405;-64
2022/03/31 07:15:22;;;;;;;1.00;1.00;;;;;;;20.88;33.07;100251.97;5023939;28;20897;-65
2022/03/31 07:17:48;;;;;;;1.13;1.10;;;;;;;20.88;33.19;100253.81;4999855;28;20830;-65
2022/03/31 07:20:14;;;;;;;1.40;1.30;;;;;;;20.76;33.28;100249.09;5024245;28;20042;-65
2022/03/31 07:22:50;;;;;;;1.67;1.20;;;;;;;20.81;33.25;100251.13;5011305;28;20599;-65
2022/03/31 07:25:16;;;;;;;0.93;0.82;;;;;;;20.71;33.30;100248.88;5011317;28;20036;-65
2022/03/31 07:27:42;;;;;;;1.10;0.98;;;;;;;20.80;33.33;100258.25;5031737;28;20049;-65
2022/03/31 07:30:08;;;;;;;0.90;0.90;;;;;;;20.90;33.03;100249.13;4997201;28;20056;-65
2022/03/31 07:32:34;;;;;;;1.20;1.00;;;;;;;21.03;32.77;100247.31;5031850;28;20049;-65
2022/03/31 07:35:00;;;;;;;1.35;1.23;;;;;;;21.12;32.77;100234.69;5003086;28;20329;-65
2022/03/31 07:37:26;;;;;;;0.80;0.80;;;;;;;21.23;32.57;100246.53;5036848;28;20045;-65
2022/03/31 07:39:52;;;;;;;1.83;0.95;;;;;;;21.18;32.45;100225.13;4996986;28;21001;-65
2022/03/31 07:42:17;;;;;;;1.00;0.90;;;;;;;21.12;32.60;100224.09;5015672;28;20043;-65
2022/03/31 07:44:43;;;;;;;1.10;1.00;;;;;;;21.10;32.64;100234.09;5027206;28;20598;-65
2022/03/31 07:47:09;;;;;;;0.90;0.90;;;;;;;21.08;32.89;100244.06;4997370;28;20455;-65
2022/03/31 07:49:35;;;;;;;1.30;1.20;;;;;;;21.01;32.82;100241.44;5026219;28;20042;-65
2022/03/31 07:52:01;;;;;;;1.20;1.10;;;;;;;21.07;32.77;100239.78;5003123;28;20060;-65
2022/03/31 07:54:27;;;;;;;0.85;0.85;;;;;;;21.27;32.70;100234.53;5027429;28;20536;-65
2022/03/31 07:56:53;;;;;;;1.48;0.88;;;;;;;21.32;32.48;100230.25;4986176;28;20067;-65
2022/03/31 07:59:23;;;;;;;0.95;0.90;;;;;;;21.37;32.21;100237.63;5022241;28;20467;-64
2022/03/31 08:01:49;;;;;;;0.90;0.90;;;;;;;21.30;32.18;100223.53;5001427;28;20037;-65
2022/03/31 08:04:16;;;;;;;1.05;1.00;;;;;;;21.15;32.27;100222.88;5032989;28;20044;-65
2022/03/31 08:06:43;;;;;;;0.95;0.95;;;;;;;20.91;32.80;100196.00;5013071;28;20055;-65
2022/03/31 08:09:10;;;;;;;1.10;1.00;;;;;;;21.07;32.67;100240.59;5022887;28;20361;-65
2022/03/31 08:11:36;;;;;;;1.17;1.08;;;;;;;21.06;32.88;100231.03;5020305;28;20111;-65
2022/03/31 08:14:02;;;;;;;0.90;0.90;;;;;;;21.14;32.63;100240.59;5013370;28;20115;-65
2022/03/31 08:16:28;;;;;;;2.40;1.05;;;;;;;21.11;32.52;100238.38;5025457;28;20893;-65
2022/03/31 08:18:54;;;;;;;1.20;1.10;;;;;;;21.04;32.68;100240.19;4995329;28;20468;-64
2022/03/31 08:21:20;;;;;;;1.95;1.10;;;;;;;21.01;32.83;100240.59;5023256;28;20058;-65
2022/03/31 08:23:45;;;;;;;1.00;1.00;;;;;;;20.96;32.93;100240.38;4997506;28;20037;-65
2022/03/31 08:26:11;;;;;;;1.13;1.02;;;;;;;20.95;32.89;100249.34;5022482;28;20048;-65
2022/03/31 08:28:36;;;;;;;1.38;1.15;;;;;;;20.96;32.99;100246.47;4997028;28;20046;-65
2022/03/31 08:31:02;;;;;;;1.00;1.00;;;;;;;21.07;32.68;100245.91;5012114;28;20067;-65
2022/03/31 08:33:28;;;;;;;1.10;1.10;;;;;;;21.17;32.61;100245.50;5029090;28;20124;-65
2022/03/31 08:35:53;;;;;;;1.15;1.05;;;;;;;21.25;32.23;100245.34;5003212;28;20049;-65
2022/03/31 08:38:19;;;;;;;1.75;1.10;;;;;;;21.20;32.38;100237.16;5029060;28;20229;-65
2022/03/31 08:40:45;;;;;;;1.00;0.70;;;;;;;21.11;32.44;100247.13;5000726;28;20058;-65
2022/03/31 08:43:10;;;;;;;1.80;1.13;;;;;;;20.86;32.56;100216.97;5062532;28;20570;-65
2022/03/31 08:45:36;;;;;;;0.82;0.82;;;;;;;21.05;32.57;100261.19;4989282;28;21072;-65
2022/03/31 08:48:04;;;;;;;1.10;1.10;;;;;;;21.06;32.57;100257.50;5030573;28;20052;-65
2022/03/31 08:50:34;;;;;;;1.85;1.20;;;;;;;21.08;32.52;100258.13;5025110;28;20044;-65
2022/03/31 08:53:00;;;;;;;0.88;0.88;;;;;;;21.22;32.35;100260.78;5014724;28;20029;-65
2022/03/31 08:55:25;;;;;;;1.33;1.23;;;;;;;21.18;32.70;100264.84;5026502;28;20463;-65
2022/03/31 08:57:54;;;;;;;1.42;1.30;;;;;;;21.26;32.51;100265.50;5007486;28;20037;-64
2022/03/31 09:00:21;;;;;;;1.25;1.15;;;;;;;21.30;32.18;100265.91;5031832;28;20040;-65
2022/03/31 09:03:00;;;;;;;1.02;0.95;;;;;;;21.41;32.16;100262.66;4995331;28;20103;-65
2022/03/31 09:05:36;;;;;;;2.03;0.90;;;;;;;21.24;32.65;100272.84;5032471;28;20037;-64
2022/03/31 09:08:05;;;;;;;0.98;0.90;;;;;;;21.56;32.52;100267.75;5004024;28;20041;-64
2022/03/31 09:10:37;;;;;;;1.33;0.98;;;;;;;21.45;32.28;100263.88;5032091;28;20025;-64
2022/03/31 09:13:05;;;;;;;1.20;1.10;;;;;;;21.41;32.17;100263.47;5009086;28;20037;-64
2022/03/31 09:15:31;;;;;;;1.42;1.25;;;;;;;21.31;32.62;100263.06;5037480;28;20033;-65
2022/03/31 09:17:58;;;;;;;1.48;1.15;;;;;;;21.26;32.29;100265.50;5003835;28;20625;-65
2022/03/31 09:20:39;;;;;;;1.85;1.30;;;;;;;21.26;32.48;100272.63;5018219;28;20060;-64
2022/03/31 09:23:05;;;;;;;1.90;1.40;;;;;;;21.24;32.47;100251.66;5033935;28;20065;-64
2022/03/31 09:25:32;;;;;;;1.45;1.30;;;;;;;21.47;31.99;100269.78;5005570;28;20087;-64
2022/03/31 09:28:00;;;;;;;2.22;1.40;;;;;;;21.57;32.05;100272.03;5037615;28;20041;-65
2022/03/31 09:30:27;;;;;;;1.50;1.40;;;;;;;21.59;31.60;100275.31;5007109;28;20033;-64
2022/03/31 09:32:53;;;;;;;1.67;1.58;;;;;;;21.54;31.66;100272.44;5034839;28;20037;-64
2022/03/31 09:35:23;;;;;;;2.08;1.65;;;;;;;21.52;31.71;100285.88;5026861;28;20783;-65
2022/03/31 09:37:55;;;;;;;1.83;1.40;;;;;;;21.38;31.72;100282.44;5031464;28;20491;-65
2022/03/31 09:40:22;;;;;;;2.60;2.00;;;;;;;21.34;32.16;100290.97;5014108;28;20636;-65
2022/03/31 09:42:58;;;;;;;2.40;1.83;;;;;;;21.37;32.13;100291.41;5039557;28;20061;-65
2022/03/31 09:45:24;;;;;;;1.77;1.67;;;;;;;21.48;31.65;100292.59;5009051;28;20126;-65
2022/03/31 09:47:51;;;;;;;3.15;2.22;;;;;;;21.60;31.60;100298.13;5041374;28;20044;-65
2022/03/31 09:50:18;;;;;;;1.95;1.77;;;;;;;21.62;31.68;100299.53;4995344;28;20033;-64
2022/03/31 09:52:47;;;;;;;2.60;1.88;;;;;;;21.54;31.59;100305.03;5033980;28;20783;-64
2022/03/31 09:55:13;;;;;;;2.55;2.13;;;;;;;21.40;31.95;100300.78;5035040;28;20049;-66
2022/03/31 09:57:40;;;;;;;3.00;2.67;;;;;;;21.32;31.71;100308.91;5004584;28;20033;-65
2022/03/31 10:00:07;;;;;;;2.80;2.45;;;;;;;21.27;31.85;100308.69;5039208;28;20045;-65
2022/03/31 10:02:38;;;;;;;3.47;2.08;;;;;;;21.31;31.88;100315.22;5007082;28;20106;-65
2022/03/31 10:05:04;;;;;;;2.58;2.25;;;;;;;21.34;31.87;100309.50;5042219;28;20040;-65
2022/03/31 10:07:30;;;;;;;2.40;2.20;;;;;;;21.50;31.76;100303.00;4990939;28;20044;-65
2022/03/31 10:09:56;;;;;;;2.58;2.28;;;;;;;21.53;31.45;100302.59;5034053;28;20033;-65
2022/03/31 10:12:26;;;;;;;3.05;2.33;;;;;;;21.60;31.45;100306.06;5008348;28;20040;-65
2022/03/31 10:15:00;;;;;;;2.60;2.40;;;;;;;21.49;31.38;100304.84;5035833;28;20036;-65
2022/03/31 10:17:28;;;;;;;3.70;2.40;;;;;;;21.35;31.41;100304.00;5004960;28;20377;-65
2022/03/31 10:20:05;;;;;;;3.38;2.50;;;;;;;21.29;31.83;100304.81;5027025;28;20041;-65
2022/03/31 10:25:15;;;;;;;3.20;2.50;;;;;;;21.45;31.48;100289.56;5053519;28;20564;-65
2022/03/31 10:27:45;;;;;;;3.35;2.50;;;;;;;21.63;31.49;100303.00;5015575;28;20044;-65
2022/03/31 10:30:13;;;;;;;3.10;2.80;;;;;;;21.61;31.14;100291.81;5023357;28;20036;-65
2022/03/31 10:32:58;;;;;;;5.18;3.03;;;;;;;21.61;31.15;100294.47;5015849;28;20125;-65
2022/03/31 10:35:41;;;;;;;3.10;2.80;;;;;;;21.45;31.28;100298.31;5032359;28;20037;-65
2022/03/31 10:38:20;;;;;;;3.35;2.65;;;;;;;21.31;31.52;100291.38;4999843;28;20045;-65
2022/03/31 10:40:51;;;;;;;3.67;2.85;;;;;;;21.22;31.65;100290.72;5032686;28;20052;-65
2022/03/31 10:43:26;;;;;;;4.10;3.08;;;;;;;21.22;31.48;100290.72;5023190;28;20037;-64
2022/03/31 10:45:54;;;;;;;2.90;2.60;;;;;;;21.31;31.53;100288.72;5038183;28;20048;-65
2022/03/31 10:48:22;;;;;;;3.80;2.97;;;;;;;21.36;31.65;100280.97;5036173;28;20698;-66
2022/03/31 10:51:01;;;;;;;3.42;3.05;;;;;;;21.34;31.15;100275.06;5001256;28;20712;-64
2022/03/31 10:53:28;;;;;;;3.78;3.38;;;;;;;21.39;31.18;100278.75;5007178;28;20060;-64
2022/03/31 10:55:55;;;;;;;3.97;3.17;;;;;;;21.19;31.89;100285.03;5000730;28;20116;-64
2022/03/31 10:58:26;;;;;;;3.50;3.10;;;;;;;21.11;32.05;100280.72;5040448;28;20474;-63
2022/03/31 11:00:57;;;;;;;3.80;2.95;;;;;;;21.10;32.35;100284.38;4964914;28;20041;-68
2022/03/31 11:03:23;;;;;;;3.33;2.83;;;;;;;20.83;33.31;100286.16;4994150;28;20072;-67
2022/03/31 11:05:49;;;;;;;3.63;2.95;;;;;;;20.62;33.76;100281.81;5004799;28;20049;-65
2022/03/31 11:08:19;;;;;;;4.13;2.88;;;;;;;20.71;33.65;100277.16;5036837;28;20665;-65
2022/03/31 11:10:49;;;;;;;3.88;3.10;;;;;;;20.72;33.46;100269.03;4985479;28;20525;-66
2022/03/31 11:13:17;;;;;;;3.10;2.80;;;;;;;20.80;33.41;100266.19;5039109;28;20036;-66
2022/03/31 11:15:47;;;;;;;3.15;2.78;;;;;;;20.59;33.48;100234.59;5010046;28;20411;-66
2022/03/31 11:18:12;;;;;;;3.72;2.70;;;;;;;20.77;33.54;100263.13;5039209;28;20479;-67
2022/03/31 11:20:38;;;;;;;2.95;2.72;;;;;;;20.94;33.30;100269.69;4999769;28;20080;-66
2022/03/31 11:23:06;;;;;;;3.20;2.90;;;;;;;20.99;33.24;100264.59;5030178;28;20119;-66
2022/03/31 11:25:33;;;;;;;3.38;2.80;;;;;;;20.97;33.18;100264.00;4999026;28;20102;-66
2022/03/31 11:28:11;;;;;;;3.08;2.78;;;;;;;21.04;32.96;100267.50;5012878;28;20047;-67